Time;durP1;ratioP1;P1;durP2;ratioP2;P2;SDS_P1;SDS_P2;PMS_P1;PMS_P2;Temp;Humidity;BMP_temperature;BMP_pressure;BME280_temperature;BME280_humidity;BME280_pressure;Samples;Min_cycle;Max_cycle;Signal;HPM_P1;HPM_P2
2023/08/18 00:02:15;;;;;;;8.30;6.65;;;;;;;23.79;100.00;100617.50;5053670;28;20129;-74
2023/08/18 00:04:44;;;;;;;8.75;6.75;;;;;;;23.83;100.00;100617.13;5054234;28;20029;-76
2023/08/18 00:07:10;;;;;;;7.63;6.32;;;;;;;23.68;100.00;100545.53;5053458;28;20121;-75
2023/08/18 00:09:35;;;;;;;7.35;6.60;;;;;;;23.57;100.00;100558.44;5072239;28;20028;-76
2023/08/18 00:12:01;;;;;;;9.13;7.07;;;;;;;23.65;100.00;100610.66;5072052;28;20036;-75
2023/08/18 00:14:26;;;;;;;8.75;5.97;;;;;;;23.35;100.00;100567.91;5072004;28;20033;-77
2023/08/18 00:16:52;;;;;;;8.55;6.50;;;;;;;23.34;100.00;100546.31;5071745;28;20029;-76
2023/08/18 00:19:17;;;;;;;10.30;6.55;;;;;;;23.54;100.00;100566.47;5072011;28;20121;-76
2023/08/18 00:21:43;;;;;;;10.43;6.55;;;;;;;23.77;100.00;100633.16;5071785;28;20166;-76
2023/08/18 00:24:08;;;;;;;8.10;6.00;;;;;;;23.08;100.00;100503.19;5071995;28;20491;-76
2023/08/18 00:26:33;;;;;;;6.85;6.15;;;;;;;23.93;100.00;100602.53;5072178;28;20419;-76
2023/08/18 00:28:59;;;;;;;7.57;6.60;;;;;;;23.64;100.00;100551.91;5071583;28;20029;-75
2023/08/18 00:31:24;;;;;;;7.97;6.30;;;;;;;23.54;100.00;100548.31;5071835;28;20033;-76
2023/08/18 00:33:50;;;;;;;9.38;6.22;;;;;;;23.93;100.00;100605.13;5071823;28;20129;-76
2023/08/18 00:36:16;;;;;;;9.65;6.35;;;;;;;23.80;100.00;100594.00;5071614;28;20032;-76
2023/08/18 00:38:41;;;;;;;9.50;6.20;;;;;;;23.73;100.00;100537.41;5071605;28;20032;-76
2023/08/18 00:41:06;;;;;;;10.48;6.20;;;;;;;23.88;100.00;100581.28;5071881;28;20028;-76
2023/08/18 00:43:32;;;;;;;8.02;6.05;;;;;;;23.45;100.00;100548.97;5071701;28;20457;-75
2023/08/18 00:45:57;;;;;;;6.97;6.15;;;;;;;23.44;100.00;100521.34;5071593;28;20499;-76
2023/08/18 00:48:23;;;;;;;7.43;6.03;;;;;;;23.47;100.00;100528.09;5071562;28;20029;-75
2023/08/18 00:50:49;;;;;;;6.72;6.13;;;;;;;23.43;100.00;100530.09;5071374;28;20090;-75
2023/08/18 00:53:15;;;;;;;11.05;5.97;;;;;;;23.77;100.00;100544.03;5071341;28;20032;-76
2023/08/18 00:55:41;;;;;;;8.00;5.90;;;;;;;23.60;100.00;100534.88;5071612;28;20041;-75
2023/08/18 00:58:07;;;;;;;10.43;6.00;;;;;;;23.72;100.00;100534.00;5053516;28;20036;-76
2023/08/18 01:00:33;;;;;;;7.63;6.10;;;;;;;23.86;100.00;100528.59;5071836;28;20032;-76
2023/08/18 01:03:00;;;;;;;9.18;5.82;;;;;;;23.84;100.00;100534.84;5071284;28;20081;-74
2023/08/18 01:05:25;;;;;;;7.90;6.10;;;;;;;24.08;100.00;100590.25;5073271;28;20028;-74
2023/08/18 01:07:51;;;;;;;9.93;6.05;;;;;;;24.25;100.00;100596.75;5077371;28;20045;-76
2023/08/18 01:10:16;;;;;;;7.65;6.20;;;;;;;23.78;100.00;100541.31;5073737;28;20040;-75
2023/08/18 01:13:07;;;;;;;7.47;5.93;;;;;;;24.04;100.00;100605.22;5071189;28;20028;-74
2023/08/18 01:15:36;;;;;;;11.20;6.47;;;;;;;23.83;100.00;100572.97;5071212;28;20036;-75
2023/08/18 01:18:04;;;;;;;9.25;6.50;;;;;;;23.91;100.00;100583.63;5071324;28;20044;-75
2023/08/18 01:20:31;;;;;;;9.30;6.57;;;;;;;23.95;100.00;100590.28;5074784;28;20028;-75
2023/08/18 01:23:00;;;;;;;8.95;6.32;;;;;;;23.67;100.00;100569.03;5057422;28;20033;-75
2023/08/18 01:25:26;;;;;;;10.00;6.50;;;;;;;23.79;100.00;100571.53;5057251;28;20487;-73
2023/08/18 01:27:53;;;;;;;9.13;5.88;;;;;;;23.60;100.00;100531.44;5057455;28;20044;-75
2023/08/18 01:30:19;;;;;;;6.32;5.72;;;;;;;23.80;100.00;100539.44;5056884;28;20029;-74
2023/08/18 01:32:58;;;;;;;7.88;6.13;;;;;;;23.76;100.00;100578.75;5074890;28;20548;-75
2023/08/18 01:35:27;;;;;;;9.07;6.13;;;;;;;23.58;100.00;100518.59;5074905;28;20035;-75
2023/08/18 01:37:55;;;;;;;7.93;6.38;;;;;;;23.23;100.00;100486.53;5074857;28;20112;-75
2023/08/18 01:40:24;;;;;;;8.38;6.15;;;;;;;23.96;100.00;100578.13;5074809;28;20506;-75
2023/08/18 01:42:51;;;;;;;7.30;6.18;;;;;;;23.42;100.00;100532.78;5074165;28;20082;-75
2023/08/18 01:45:16;;;;;;;7.82;6.07;;;;;;;23.64;100.00;100533.72;5074597;28;20119;-75
2023/08/18 01:47:42;;;;;;;9.05;6.22;;;;;;;23.59;100.00;100525.41;5074543;28;20575;-74
2023/08/18 01:50:08;;;;;;;8.38;6.05;;;;;;;23.58;100.00;100513.38;5074717;28;20032;-75
2023/08/18 01:52:34;;;;;;;9.00;6.15;;;;;;;23.61;100.00;100525.31;5074204;28;20043;-75
2023/08/18 01:54:59;;;;;;;7.53;6.43;;;;;;;23.52;100.00;100471.44;5074525;28;20028;-75
2023/08/18 01:57:24;;;;;;;8.93;6.25;;;;;;;24.01;100.00;100576.00;5074181;28;20461;-73
2023/08/18 01:59:50;;;;;;;7.78;6.30;;;;;;;23.22;100.00;100477.91;5074119;28;20033;-75
2023/08/18 02:02:15;;;;;;;9.13;6.13;;;;;;;24.07;100.00;100584.19;5074359;28;20032;-74
2023/08/18 02:04:41;;;;;;;8.27;6.32;;;;;;;23.77;100.00;100523.25;5074166;28;20033;-74
2023/08/18 02:07:06;;;;;;;6.38;5.47;;;;;;;24.00;100.00;100576.94;5074071;28;20549;-74
2023/08/18 02:09:31;;;;;;;10.93;6.18;;;;;;;23.58;100.00;100541.13;5056411;28;20033;-75
2023/08/18 02:11:57;;;;;;;11.48;6.38;;;;;;;23.44;100.00;100515.31;5074243;28;20055;-74
2023/08/18 02:14:22;;;;;;;7.82;6.35;;;;;;;23.26;100.00;100518.28;5073690;28;20414;-74
2023/08/18 02:16:48;;;;;;;7.40;6.10;;;;;;;23.11;100.00;100487.41;5074299;28;20406;-77
2023/08/18 02:19:14;;;;;;;7.32;5.97;;;;;;;23.16;100.00;100508.66;5074636;28;20040;-75
2023/08/18 02:21:39;;;;;;;8.98;6.43;;;;;;;23.41;100.00;100523.34;5074538;28;20506;-77
2023/08/18 02:24:04;;;;;;;8.73;6.25;;;;;;;23.37;100.00;100509.75;5073469;28;20129;-75
2023/08/18 02:26:30;;;;;;;8.13;5.93;;;;;;;23.58;100.00;100505.59;5073984;28;20123;-75
2023/08/18 02:28:55;;;;;;;7.35;6.55;;;;;;;23.77;100.00;100577.81;5073787;28;20020;-76
2023/08/18 02:31:21;;;;;;;6.93;6.20;;;;;;;23.81;100.00;100571.44;5061451;28;20547;-76
2023/08/18 02:33:46;;;;;;;9.25;5.90;;;;;;;23.65;100.00;100550.94;5034107;28;20052;-76
2023/08/18 02:36:12;;;;;;;7.53;6.45;;;;;;;23.45;100.00;100494.47;5042710;28;20024;-75
2023/08/18 02:38:38;;;;;;;7.55;6.38;;;;;;;23.57;100.00;100562.84;5035753;28;20416;-74
2023/08/18 02:41:04;;;;;;;10.60;6.30;;;;;;;23.40;100.00;100488.75;5053534;28;20033;-75
2023/08/18 02:43:29;;;;;;;7.25;6.15;;;;;;;23.92;100.00;100543.75;5034256;28;20029;-75
2023/08/18 02:45:56;;;;;;;7.00;5.80;;;;;;;23.90;100.00;100550.81;5030376;28;20033;-75
2023/08/18 02:48:22;;;;;;;7.78;6.10;;;;;;;23.47;100.00;100510.75;5052968;28;20115;-74
2023/08/18 02:50:48;;;;;;;7.53;6.60;;;;;;;23.85;100.00;100565.06;5053430;28;20025;-75
2023/08/18 02:53:13;;;;;;;8.93;6.20;;;;;;;23.56;100.00;100499.69;5053407;28;20098;-76
2023/08/18 02:55:39;;;;;;;8.05;6.10;;;;;;;23.68;100.00;100500.56;5035678;28;20036;-76
2023/08/18 02:58:05;;;;;;;10.50;6.00;;;;;;;24.15;100.00;100560.22;5053074;28;20055;-75
2023/08/18 03:00:31;;;;;;;9.98;5.85;;;;;;;23.86;100.00;100532.97;5034400;28;20477;-75
2023/08/18 03:02:58;;;;;;;10.85;6.38;;;;;;;24.17;100.00;100570.50;5035139;28;20029;-76
2023/08/18 03:05:24;;;;;;;8.68;6.10;;;;;;;23.71;100.00;100487.34;5053235;28;20029;-75
2023/08/18 03:07:50;;;;;;;8.27;5.95;;;;;;;23.83;100.00;100504.59;5047737;28;20532;-75
2023/08/18 03:10:15;;;;;;;7.05;6.18;;;;;;;23.84;100.00;100535.69;5060285;28;20454;-75
2023/08/18 03:12:40;;;;;;;10.73;6.60;;;;;;;23.67;100.00;100509.28;5053138;28;20021;-77
2023/08/18 03:15:06;;;;;;;12.25;6.70;;;;;;;24.05;100.00;100570.50;5052824;28;20029;-76
2023/08/18 03:17:32;;;;;;;9.40;6.97;;;;;;;23.84;100.00;100522.69;5059701;28;20056;-76
2023/08/18 03:19:57;;;;;;;9.77;6.65;;;;;;;24.02;100.00;100564.66;5055555;28;20396;-77
2023/08/18 03:22:23;;;;;;;7.65;6.40;;;;;;;24.07;100.00;100579.00;5052014;28;20037;-76
2023/08/18 03:24:48;;;;;;;10.05;6.60;;;;;;;23.71;100.00;100506.34;5052855;28;20024;-75
2023/08/18 03:27:13;;;;;;;7.75;6.45;;;;;;;23.84;100.00;100551.28;5035053;28;20020;-76
2023/08/18 03:29:39;;;;;;;9.27;6.20;;;;;;;24.13;100.00;100551.72;5055956;28;20521;-76
2023/08/18 03:32:05;;;;;;;7.90;6.20;;;;;;;23.97;100.00;100559.81;5056720;28;20033;-76
2023/08/18 03:34:31;;;;;;;9.68;6.72;;;;;;;23.94;100.00;100495.09;5051434;28;20028;-76
2023/08/18 03:36:57;;;;;;;11.18;6.95;;;;;;;23.49;100.00;100505.44;5054440;28;20032;-76
2023/08/18 03:39:22;;;;;;;9.93;6.47;;;;;;;23.53;100.00;100507.69;5070747;28;20031;-71
2023/08/18 03:41:47;;;;;;;9.60;6.78;;;;;;;23.95;100.00;100569.47;5050059;28;20407;-73
2023/08/18 03:44:13;;;;;;;10.00;6.43;;;;;;;23.97;100.00;100558.97;5069985;28;20036;-73
2023/08/18 03:46:38;;;;;;;7.05;6.30;;;;;;;23.58;100.00;100507.34;5071243;28;20414;-73
2023/08/18 03:49:05;;;;;;;11.57;6.65;;;;;;;23.94;100.00;100570.44;5071583;28;20114;-73
2023/08/18 03:51:32;;;;;;;10.05;6.40;;;;;;;24.35;100.00;100562.16;5071415;28;20041;-73
2023/08/18 03:53:57;;;;;;;9.05;6.70;;;;;;;24.77;100.00;100561.53;5070467;28;20032;-73
2023/08/18 03:56:23;;;;;;;11.23;6.88;;;;;;;24.70;100.00;100554.28;5054099;28;20040;-72
2023/08/18 03:58:48;;;;;;;9.20;6.35;;;;;;;23.85;100.00;100526.09;5051268;28;20032;-74
2023/08/18 04:01:14;;;;;;;9.95;6.82;;;;;;;24.08;100.00;100579.84;5051706;28;20025;-75
2023/08/18 04:03:41;;;;;;;10.05;6.70;;;;;;;23.71;100.00;100523.72;5034055;28;20696;-77
2023/08/18 04:06:07;;;;;;;9.88;6.82;;;;;;;23.50;100.00;100510.53;5051569;28;20032;-74
2023/08/18 04:08:40;;;;;;;14.07;7.18;;;;;;;23.85;100.00;100581.50;5051313;28;20420;-75
2023/08/18 04:11:06;;;;;;;9.95;7.45;;;;;;;24.09;100.00;100574.53;5050873;28;20032;-71
2023/08/18 04:13:31;;;;;;;9.85;6.70;;;;;;;23.68;100.00;100511.78;5050560;28;20484;-71
2023/08/18 04:15:57;;;;;;;10.95;7.63;;;;;;;23.77;100.00;100518.06;5050894;28;20036;-72
2023/08/18 04:18:23;;;;;;;9.70;7.60;;;;;;;23.79;100.00;100579.34;5059786;28;20036;-72
2023/08/18 04:20:48;;;;;;;10.63;7.53;;;;;;;23.80;100.00;100574.97;5061896;28;20023;-73
2023/08/18 04:23:14;;;;;;;10.40;7.07;;;;;;;23.91;100.00;100536.03;5051006;28;20393;-76
2023/08/18 04:25:42;;;;;;;11.05;6.97;;;;;;;23.78;100.00;100571.66;5050586;28;20385;-70
2023/08/18 04:28:08;;;;;;;9.98;6.80;;;;;;;23.94;100.00;100577.41;5050406;28;20029;-70
2023/08/18 04:30:33;;;;;;;10.40;6.60;;;;;;;24.12;100.00;100570.03;5057975;28;20041;-72
2023/08/18 04:32:58;;;;;;;9.45;6.90;;;;;;;24.21;100.00;100541.59;5076444;28;20463;-71
2023/08/18 04:35:24;;;;;;;8.32;7.00;;;;;;;24.24;100.00;100566.53;5071376;28;20021;-74
2023/08/18 04:37:49;;;;;;;16.10;8.13;;;;;;;24.85;100.00;100532.31;5070890;28;20025;-76
2023/08/18 04:40:15;;;;;;;8.77;6.95;;;;;;;24.55;100.00;100568.47;5069985;28;20028;-74
2023/08/18 04:42:40;;;;;;;7.65;6.40;;;;;;;24.09;100.00;100504.34;5071096;28;20115;-74
2023/08/18 04:45:06;;;;;;;9.40;6.63;;;;;;;24.45;100.00;100568.34;5070129;28;20466;-74
2023/08/18 04:47:31;;;;;;;9.18;6.50;;;;;;;24.80;100.00;100576.06;5068795;28;20071;-74
2023/08/18 04:49:57;;;;;;;7.68;6.45;;;;;;;24.99;100.00;100565.88;5070444;28;20100;-75
2023/08/18 04:52:23;;;;;;;8.60;6.80;;;;;;;25.01;100.00;100569.19;5069192;28;20025;-73
2023/08/18 04:54:48;;;;;;;8.38;7.05;;;;;;;24.43;100.00;100466.22;5072373;28;20719;-73
2023/08/18 04:57:13;;;;;;;9.98;7.05;;;;;;;25.25;100.00;100540.41;5073692;28;20640;-73
2023/08/18 04:59:39;;;;;;;11.20;6.90;;;;;;;25.24;100.00;100515.31;5073806;28;20491;-74
2023/08/18 05:02:04;;;;;;;8.82;7.40;;;;;;;25.66;100.00;100566.59;5074218;28;20024;-73
2023/08/18 05:04:30;;;;;;;9.13;6.93;;;;;;;25.20;100.00;100464.44;5074241;28;20045;-73
2023/08/18 05:06:55;;;;;;;9.30;8.00;;;;;;;25.83;100.00;100533.94;5074323;28;20380;-74
2023/08/18 05:09:20;;;;;;;13.82;8.68;;;;;;;25.71;100.00;100505.31;5074155;28;20028;-74
2023/08/18 05:11:47;;;;;;;11.00;7.25;;;;;;;26.19;100.00;100565.63;5075164;28;20028;-74
2023/08/18 05:14:13;;;;;;;10.40;6.43;;;;;;;26.11;100.00;100564.59;5074674;28;20028;-74
2023/08/18 05:16:38;;;;;;;9.93;6.80;;;;;;;26.06;100.00;100515.47;5075177;28;20070;-74
2023/08/18 05:19:04;;;;;;;8.48;6.57;;;;;;;26.49;100.00;100546.56;5074597;28;20120;-74
2023/08/18 05:21:29;;;;;;;10.45;6.82;;;;;;;26.66;100.00;100556.44;5074849;28;20029;-74
2023/08/18 05:23:55;;;;;;;8.60;6.40;;;;;;;26.76;100.00;100552.06;5073972;28;20066;-75
2023/08/18 05:26:20;;;;;;;10.57;7.10;;;;;;;27.12;100.00;100556.72;5074737;28;20482;-75
2023/08/18 05:28:47;;;;;;;8.05;6.38;;;;;;;26.90;100.00;100548.28;5074914;28;20033;-74
2023/08/18 05:31:15;;;;;;;10.90;6.63;;;;;;;27.36;100.00;100552.00;5074795;28;20024;-74
2023/08/18 05:33:41;;;;;;;7.47;6.10;;;;;;;27.24;100.00;100523.47;5074818;28;20071;-73
2023/08/18 05:36:07;;;;;;;10.60;6.97;;;;;;;27.12;100.00;100488.81;5074408;28;20067;-73
2023/08/18 05:38:32;;;;;;;12.20;6.63;;;;;;;27.29;100.00;100513.47;5074209;28;20028;-74
2023/08/18 05:41:08;;;;;;;9.52;6.35;;;;;;;28.03;100.00;100561.63;5056141;28;20025;-73
2023/08/18 05:43:35;;;;;;;8.80;6.22;;;;;;;27.69;100.00;100571.66;5074230;28;20074;-73
2023/08/18 05:46:01;;;;;;;7.97;6.00;;;;;;;28.13;100.00;100578.13;5056399;28;20491;-73
2023/08/18 05:48:27;;;;;;;7.50;5.80;;;;;;;28.17;100.00;100569.88;5074325;28;20059;-74
2023/08/18 05:50:53;;;;;;;8.30;6.13;;;;;;;28.38;100.00;100585.41;5074410;28;20032;-73
2023/08/18 05:53:18;;;;;;;9.20;6.50;;;;;;;28.14;100.00;100530.94;5073352;28;20137;-73
2023/08/18 05:55:46;;;;;;;13.20;7.28;;;;;;;28.51;100.00;100572.81;5073975;28;20116;-74
2023/08/18 05:58:12;;;;;;;11.70;6.88;;;;;;;28.71;100.00;100584.91;5073882;28;20071;-74
2023/08/18 06:00:38;;;;;;;10.52;6.30;;;;;;;28.49;100.00;100538.13;5073965;28;20506;-74
2023/08/18 06:03:03;;;;;;;6.88;6.00;;;;;;;29.15;100.00;100570.25;5073466;28;20119;-74
2023/08/18 06:05:29;;;;;;;8.80;6.10;;;;;;;28.58;100.00;100541.69;5053913;28;20028;-73
2023/08/18 06:07:55;;;;;;;10.95;6.97;;;;;;;28.57;100.00;100553.13;5073511;28;20113;-74
2023/08/18 06:10:21;;;;;;;8.35;6.82;;;;;;;29.07;100.00;100551.78;5073835;28;20043;-74
2023/08/18 06:12:47;;;;;;;9.35;6.72;;;;;;;29.43;100.00;100563.16;5055686;28;20024;-72
2023/08/18 06:15:12;;;;;;;10.10;6.45;;;;;;;29.17;100.00;100591.91;5073459;28;20033;-74
2023/08/18 06:17:38;;;;;;;8.75;6.55;;;;;;;29.14;100.00;100554.69;5073686;28;20039;-73
2023/08/18 06:20:04;;;;;;;11.13;6.20;;;;;;;28.47;100.00;100555.75;5072983;28;20534;-72
2023/08/18 06:22:29;;;;;;;8.48;7.28;;;;;;;28.96;100.00;100568.53;5073093;28;20473;-73
2023/08/18 06:24:55;;;;;;;12.20;6.75;;;;;;;29.49;100.00;100589.63;5055037;28;20039;-72
2023/08/18 06:27:20;;;;;;;9.68;6.20;;;;;;;29.58;100.00;100586.09;5073262;28;20046;-73
2023/08/18 06:29:45;;;;;;;10.07;7.07;;;;;;;29.48;100.00;100548.63;5073395;28;20041;-73
2023/08/18 06:32:11;;;;;;;11.70;8.30;;;;;;;29.73;100.00;100599.56;5072981;28;20086;-73
2023/08/18 06:34:36;;;;;;;11.95;6.55;;;;;;;29.97;100.00;100594.47;5055205;28;20052;-73
2023/08/18 06:37:02;;;;;;;10.48;6.22;;;;;;;30.18;100.00;100605.50;5072265;28;20043;-73
2023/08/18 06:39:27;;;;;;;10.30;6.72;;;;;;;30.44;100.00;100589.78;5073239;28;20070;-73
2023/08/18 06:41:54;;;;;;;9.88;7.68;;;;;;;29.81;100.00;100610.91;5072963;28;20083;-73
2023/08/18 06:44:20;;;;;;;13.90;9.50;;;;;;;30.57;100.00;100598.88;5072586;28;20047;-73
2023/08/18 06:46:45;;;;;;;9.23;6.60;;;;;;;29.59;100.00;100566.78;5073055;28;20024;-73
2023/08/18 06:49:11;;;;;;;11.98;6.25;;;;;;;30.01;100.00;100564.34;5054899;28;20483;-74
2023/08/18 06:51:36;;;;;;;12.15;7.00;;;;;;;30.66;100.00;100544.59;5072817;28;20483;-73
2023/08/18 06:54:02;;;;;;;11.45;8.02;;;;;;;30.60;100.00;100572.28;5054076;28;20028;-73
2023/08/18 06:56:27;;;;;;;8.45;6.72;;;;;;;29.54;100.00;100578.66;5072749;28;20082;-73
2023/08/18 06:58:53;;;;;;;11.25;7.22;;;;;;;29.11;100.00;100613.41;5072501;28;20119;-74
2023/08/18 07:01:18;;;;;;;13.43;8.32;;;;;;;28.94;100.00;100615.00;5054602;28;20028;-75
2023/08/18 07:03:44;;;;;;;9.00;7.18;;;;;;;28.77;100.00;100568.63;5072429;28;20479;-74
2023/08/18 07:06:09;;;;;;;8.07;5.85;;;;;;;28.93;100.00;100636.09;5072861;28;20097;-73
2023/08/18 07:08:35;;;;;;;7.90;6.25;;;;;;;28.88;100.00;100654.84;5071875;28;20057;-73
2023/08/18 07:11:01;;;;;;;18.98;8.52;;;;;;;28.79;100.00;100666.19;5072529;28;20473;-74
2023/08/18 07:13:28;;;;;;;17.73;9.63;;;;;;;28.61;100.00;100656.59;5072505;28;20024;-73
2023/08/18 07:15:54;;;;;;;16.77;8.98;;;;;;;28.49;100.00;100645.41;5072540;28;20033;-72
2023/08/18 07:18:19;;;;;;;16.35;9.68;;;;;;;28.70;100.00;100536.13;5053934;28;20107;-73
2023/08/18 07:20:45;;;;;;;14.02;8.70;;;;;;;29.51;100.00;100576.34;5053884;28;20034;-73
2023/08/18 07:23:11;;;;;;;12.38;7.45;;;;;;;30.33;100.00;100619.72;5054413;28;20067;-72
2023/08/18 07:25:37;;;;;;;15.02;6.32;;;;;;;31.10;100.00;100587.34;5072764;28;20060;-73
2023/08/18 07:28:03;;;;;;;12.95;6.30;;;;;;;30.68;100.00;100540.00;5072261;28;20032;-73
2023/08/18 07:30:29;;;;;;;8.25;5.30;;;;;;;30.70;100.00;100586.13;5054303;28;20506;-73
2023/08/18 07:32:55;;;;;;;8.93;5.40;;;;;;;30.57;100.00;100559.50;5072149;28;20085;-72
2023/08/18 07:35:21;;;;;;;9.70;5.20;;;;;;;31.23;100.00;100579.81;5072083;28;20396;-73
2023/08/18 07:37:47;;;;;;;12.52;5.13;;;;;;;29.93;100.00;100607.09;5070814;28;20047;-73
2023/08/18 07:40:12;;;;;;;9.10;5.35;;;;;;;29.78;100.00;100586.78;5071808;28;20463;-73
2023/08/18 07:42:39;;;;;;;8.20;5.20;;;;;;;29.71;100.00;100601.47;5071640;28;20033;-75
2023/08/18 07:45:05;;;;;;;6.45;5.15;;;;;;;29.30;100.00;100591.53;5055384;28;20032;-74
2023/08/18 07:47:31;;;;;;;10.77;5.25;;;;;;;28.83;100.00;100505.19;5053975;28;20032;-72
2023/08/18 07:49:56;;;;;;;8.05;4.90;;;;;;;29.04;100.00;100575.66;5053691;28;20414;-72
2023/08/18 07:52:22;;;;;;;8.77;5.40;;;;;;;29.03;100.00;100559.13;5074102;28;20056;-74
2023/08/18 07:54:47;;;;;;;7.50;4.93;;;;;;;29.28;100.00;100598.72;5074404;28;20024;-73
2023/08/18 07:57:13;;;;;;;8.95;5.05;;;;;;;29.37;100.00;100603.91;5071541;28;20025;-72
2023/08/18 07:59:38;;;;;;;10.02;5.20;;;;;;;29.32;100.00;100553.72;5071941;28;20028;-73
2023/08/18 08:02:03;;;;;;;13.38;5.35;;;;;;;29.54;100.00;100616.19;5071706;28;20111;-73
2023/08/18 08:04:29;;;;;;;11.10;5.32;;;;;;;29.15;100.00;100565.00;5071011;28;20030;-73
2023/08/18 08:06:56;;;;;;;9.15;4.95;;;;;;;29.28;100.00;100546.31;5053606;28;20033;-73
2023/08/18 08:09:26;;;;;;;12.20;4.88;;;;;;;29.20;100.00;100551.47;5054484;28;20056;-73
2023/08/18 08:11:52;;;;;;;10.93;5.20;;;;;;;29.61;100.00;100584.97;5071632;28;20035;-74
2023/08/18 08:14:21;;;;;;;8.02;4.53;;;;;;;29.76;100.00;100589.56;5071497;28;20060;-74
2023/08/18 08:16:47;;;;;;;20.33;5.75;;;;;;;29.57;100.00;100537.28;5071359;28;20028;-72
2023/08/18 08:19:13;;;;;;;6.78;4.60;;;;;;;30.96;100.00;100485.47;5070785;28;20044;-72
2023/08/18 08:21:40;;;;;;;8.40;4.47;;;;;;;31.67;100.00;100497.03;5071176;28;20032;-73
2023/08/18 08:24:06;;;;;;;5.60;4.35;;;;;;;32.13;100.00;100488.44;5071106;28;20162;-73
2023/08/18 08:26:32;;;;;;;15.50;5.20;;;;;;;32.43;100.00;100474.50;5053151;28;20078;-73
2023/08/18 08:28:57;;;;;;;7.38;4.10;;;;;;;32.06;100.00;100492.75;5070646;28;20056;-73
2023/08/18 08:31:24;;;;;;;7.95;4.50;;;;;;;31.63;100.00;100435.22;5071348;28;20028;-71
2023/08/18 08:33:49;;;;;;;6.68;4.50;;;;;;;32.28;100.00;100446.44;5067941;28;20419;-73
2023/08/18 08:36:15;;;;;;;10.75;4.95;;;;;;;32.72;100.00;100491.53;5071198;28;20032;-72
2023/08/18 08:38:42;;;;;;;5.55;4.63;;;;;;;32.13;100.00;100472.63;5070977;28;20089;-73
2023/08/18 08:41:07;;;;;;;7.15;5.13;;;;;;;32.74;100.00;100487.75;5071038;28;20060;-71
2023/08/18 08:43:33;;;;;;;6.88;4.57;;;;;;;32.56;100.00;100436.28;5052749;28;20553;-71
2023/08/18 08:46:00;;;;;;;6.90;4.50;;;;;;;33.21;100.00;100442.81;5052346;28;20116;-73
2023/08/18 08:48:31;;;;;;;10.02;4.60;;;;;;;32.72;100.00;100450.22;5070572;28;20029;-72
2023/08/18 08:51:02;;;;;;;8.32;4.43;;;;;;;32.90;100.00;100421.72;5070719;28;20485;-72
2023/08/18 08:53:35;;;;;;;;;;;;;;;33.19;100.00;100460.63;5071297;28;20088;-72
2023/08/18 08:56:02;;;;;;;8.68;4.45;;;;;;;33.37;100.00;100397.81;5070872;28;19962;-72
2023/08/18 08:58:31;;;;;;;9.27;4.55;;;;;;;33.76;100.00;100427.47;5070924;28;20384;-73
2023/08/18 09:00:57;;;;;;;7.80;4.50;;;;;;;32.98;100.00;100373.47;5070737;28;20806;-72
2023/08/18 09:03:23;;;;;;;11.15;4.93;;;;;;;32.74;100.00;100378.88;5070771;28;20111;-72
2023/08/18 09:05:48;;;;;;;8.73;4.35;;;;;;;32.64;100.00;100349.31;5052385;28;20035;-73
2023/08/18 09:08:13;;;;;;;8.85;4.60;;;;;;;32.26;100.00;100417.66;5052220;28;20564;-72
2023/08/18 09:10:39;;;;;;;9.38;4.35;;;;;;;32.49;100.00;100406.38;5070890;28;20028;-73
2023/08/18 09:13:05;;;;;;;8.60;4.68;;;;;;;32.15;100.00;100428.53;5062898;28;20132;-72
2023/08/18 09:15:31;;;;;;;6.22;4.30;;;;;;;31.37;100.00;100390.69;5032396;28;20032;-71
2023/08/18 09:17:57;;;;;;;7.32;4.63;;;;;;;31.19;100.00;100418.13;5050513;28;20076;-71
2023/08/18 09:20:23;;;;;;;9.55;5.03;;;;;;;31.62;100.00;100436.19;5032852;28;20056;-71
2023/08/18 09:22:53;;;;;;;6.95;5.20;;;;;;;31.82;100.00;100498.00;5050161;28;20480;-71
2023/08/18 09:25:19;;;;;;;11.02;5.40;;;;;;;31.69;100.00;100505.59;5032639;28;20119;-70
2023/08/18 09:27:44;;;;;;;6.65;5.20;;;;;;;31.63;100.00;100489.66;5050370;28;20570;-71
2023/08/18 09:30:10;;;;;;;8.50;5.55;;;;;;;31.39;100.00;100466.81;5049985;28;20021;-71
2023/08/18 09:32:36;;;;;;;8.95;5.47;;;;;;;31.61;100.00;100459.06;5032275;28;20132;-70
2023/08/18 09:35:01;;;;;;;12.15;4.90;;;;;;;32.78;100.00;100465.31;5049877;28;20041;-71
2023/08/18 09:37:31;;;;;;;7.35;4.38;;;;;;;32.96;100.00;100473.78;5032528;28;20573;-70
2023/08/18 09:39:57;;;;;;;9.15;5.35;;;;;;;33.47;100.00;100459.06;5033277;28;20047;-70
2023/08/18 09:42:23;;;;;;;8.98;5.47;;;;;;;33.31;100.00;100448.66;5053658;28;20037;-71
2023/08/18 09:44:48;;;;;;;9.63;4.40;;;;;;;33.14;100.00;100492.78;5054407;28;20037;-70
2023/08/18 09:47:17;;;;;;;7.72;5.00;;;;;;;33.46;100.00;100467.97;5053980;28;20033;-72
2023/08/18 09:49:46;;;;;;;8.38;4.78;;;;;;;34.23;100.00;100455.38;5036084;28;20449;-72
2023/08/18 09:52:14;;;;;;;6.40;4.50;;;;;;;34.59;100.00;100433.28;5053389;28;20454;-73
2023/08/18 09:54:45;;;;;;;8.70;4.55;;;;;;;33.99;100.00;100446.72;5035893;28;20068;-73
2023/08/18 09:57:25;;;;;;;7.53;4.40;;;;;;;34.65;100.00;100427.25;5053319;28;20047;-72
2023/08/18 09:59:57;;;;;;;7.43;4.10;;;;;;;34.79;100.00;100413.16;5053375;28;20504;-72
2023/08/18 10:02:28;;;;;;;6.32;4.40;;;;;;;34.36;100.00;100429.09;5035877;28;20562;-73
2023/08/18 10:04:54;;;;;;;;;;;;;;;34.12;100.00;100446.09;5036156;28;20989;-73
2023/08/18 10:07:20;;;;;;;7.65;4.43;;;;;;;33.46;100.00;100457.41;5053655;28;19925;-73
2023/08/18 10:09:47;;;;;;;9.88;4.60;;;;;;;33.76;100.00;100439.84;5053162;28;20119;-72
2023/08/18 10:12:12;;;;;;;8.10;4.47;;;;;;;33.41;100.00;100427.28;5053654;28;20490;-72
2023/08/18 10:14:39;;;;;;;5.28;4.13;;;;;;;33.91;100.00;100430.13;5053541;28;20037;-74
2023/08/18 10:17:05;;;;;;;8.63;4.43;;;;;;;33.18;100.00;100406.22;5053131;28;20079;-73
2023/08/18 10:20:00;;;;;;;7.25;4.50;;;;;;;33.33;100.00;100469.56;5053109;28;20040;-72
2023/08/18 10:22:33;;;;;;;7.85;4.50;;;;;;;34.63;100.00;100428.44;5032107;28;20524;-73
2023/08/18 10:24:59;;;;;;;7.55;4.30;;;;;;;33.82;100.00;100420.66;5030467;28;20041;-73
2023/08/18 10:27:27;;;;;;;10.32;4.75;;;;;;;34.47;100.00;100439.19;5053319;28;21133;-73
2023/08/18 10:29:58;;;;;;;4.90;4.40;;;;;;;33.99;100.00;100445.91;5053486;28;20032;-73
2023/08/18 10:32:24;;;;;;;;;;;;;;;33.84;100.00;100455.59;5053849;28;20025;-73
2023/08/18 10:34:50;;;;;;;8.55;4.60;;;;;;;33.42;100.00;100419.19;5052867;28;19935;-73
2023/08/18 10:37:20;;;;;;;9.00;4.32;;;;;;;33.57;100.00;100461.47;5035112;28;20037;-73
2023/08/18 10:39:45;;;;;;;6.22;4.70;;;;;;;33.91;100.00;100464.44;5053152;28;20070;-72
2023/08/18 10:42:15;;;;;;;9.55;4.60;;;;;;;33.66;100.00;100453.31;5052626;28;20121;-72
2023/08/18 10:45:00;;;;;;;7.22;5.05;;;;;;;33.90;100.00;100402.91;5052841;28;20033;-74
2023/08/18 10:47:32;;;;;;;9.30;4.78;;;;;;;34.22;100.00;100403.53;5052882;28;20049;-72
2023/08/18 10:50:04;;;;;;;8.32;4.82;;;;;;;34.20;100.00;100379.94;5034784;28;20033;-73
2023/08/18 10:52:30;;;;;;;7.43;4.20;;;;;;;33.94;100.00;100390.97;5052149;28;20021;-72
2023/08/18 10:54:57;;;;;;;7.20;4.82;;;;;;;34.31;100.00;100420.94;5034272;28;20116;-72
2023/08/18 10:57:23;;;;;;;8.30;4.60;;;;;;;34.34;100.00;100404.69;5052097;28;20060;-72
2023/08/18 10:59:49;;;;;;;6.82;4.47;;;;;;;34.42;100.00;100363.13;5052164;28;20100;-72
2023/08/18 11:02:15;;;;;;;7.82;4.43;;;;;;;34.71;100.00;100408.00;5052535;28;20112;-73
2023/08/18 11:04:41;;;;;;;8.65;4.32;;;;;;;34.64;100.00;100385.97;5052600;28;20579;-73
2023/08/18 11:07:06;;;;;;;5.93;4.32;;;;;;;34.18;100.00;100355.56;5052408;28;20112;-72
2023/08/18 11:09:32;;;;;;;7.50;4.18;;;;;;;34.49;100.00;100395.75;5034934;28;20419;-73
2023/08/18 11:11:57;;;;;;;8.68;4.28;;;;;;;34.66;100.00;100393.72;5053165;28;20503;-73
2023/08/18 11:14:23;;;;;;;9.27;4.20;;;;;;;35.00;100.00;100399.16;5059597;28;20037;-72